sensor_id;sensor_type;location;lat;lon;timestamp;P1;durP1;ratioP1;P2;durP2;ratioP2
33716;SDS011;20046;50.746;7.072;2024-01-11T00:00:42;86.03;;;29.05;;
33716;SDS011;20046;50.746;7.072;2024-01-11T00:03:09;80.25;;;29.58;;
33716;SDS011;20046;50.746;7.072;2024-01-11T00:05:34;79.45;;;28.40;;
33716;SDS011;20046;50.746;7.072;2024-01-11T00:08:00;78.63;;;28.52;;
33716;SDS011;20046;50.746;7.072;2024-01-11T00:10:26;73.15;;;29.40;;
33716;SDS011;20046;50.746;7.072;2024-01-11T00:12:51;80.05;;;29.88;;
33716;SDS011;20046;50.746;7.072;2024-01-11T00:15:17;80.97;;;30.33;;
33716;SDS011;20046;50.746;7.072;2024-01-11T00:17:42;75.57;;;30.02;;
33716;SDS011;20046;50.746;7.072;2024-01-11T00:20:08;78.28;;;30.25;;
33716;SDS011;20046;50.746;7.072;2024-01-11T00:22:35;76.82;;;28.83;;
33716;SDS011;20046;50.746;7.072;2024-01-11T00:25:01;77.75;;;29.13;;
33716;SDS011;20046;50.746;7.072;2024-01-11T00:27:27;72.13;;;29.42;;
33716;SDS011;20046;50.746;7.072;2024-01-11T00:29:53;72.53;;;28.92;;
33716;SDS011;20046;50.746;7.072;2024-01-11T00:32:18;89.68;;;30.83;;
33716;SDS011;20046;50.746;7.072;2024-01-11T00:34:46;69.93;;;29.08;;
33716;SDS011;20046;50.746;7.072;2024-01-11T00:37:11;81.75;;;30.98;;
33716;SDS011;20046;50.746;7.072;2024-01-11T00:39:37;76.75;;;29.58;;
33716;SDS011;20046;50.746;7.072;2024-01-11T00:42:03;74.13;;;27.83;;
33716;SDS011;20046;50.746;7.072;2024-01-11T00:44:29;77.53;;;28.95;;
33716;SDS011;20046;50.746;7.072;2024-01-11T00:46:54;84.95;;;29.52;;
33716;SDS011;20046;50.746;7.072;2024-01-11T00:49:20;71.38;;;28.63;;
33716;SDS011;20046;50.746;7.072;2024-01-11T00:51:46;72.88;;;29.45;;
33716;SDS011;20046;50.746;7.072;2024-01-11T00:54:12;77.00;;;28.55;;
33716;SDS011;20046;50.746;7.072;2024-01-11T00:56:37;71.05;;;29.13;;
33716;SDS011;20046;50.746;7.072;2024-01-11T00:59:03;74.97;;;27.90;;
33716;SDS011;20046;50.746;7.072;2024-01-11T01:01:29;68.00;;;29.48;;
33716;SDS011;20046;50.746;7.072;2024-01-11T01:03:54;77.93;;;28.23;;
33716;SDS011;20046;50.746;7.072;2024-01-11T01:06:20;74.72;;;27.20;;
33716;SDS011;20046;50.746;7.072;2024-01-11T01:08:46;81.07;;;29.33;;
33716;SDS011;20046;50.746;7.072;2024-01-11T01:11:11;74.30;;;29.05;;
33716;SDS011;20046;50.746;7.072;2024-01-11T01:13:37;81.20;;;28.23;;
33716;SDS011;20046;50.746;7.072;2024-01-11T01:16:02;75.28;;;27.63;;
33716;SDS011;20046;50.746;7.072;2024-01-11T01:18:28;78.53;;;28.90;;
33716;SDS011;20046;50.746;7.072;2024-01-11T01:20:53;77.93;;;28.38;;
33716;SDS011;20046;50.746;7.072;2024-01-11T01:23:20;69.63;;;28.23;;
33716;SDS011;20046;50.746;7.072;2024-01-11T01:25:45;71.13;;;26.88;;
33716;SDS011;20046;50.746;7.072;2024-01-11T01:28:11;83.38;;;29.25;;
33716;SDS011;20046;50.746;7.072;2024-01-11T01:30:37;75.47;;;26.85;;
33716;SDS011;20046;50.746;7.072;2024-01-11T01:33:02;71.97;;;27.42;;
33716;SDS011;20046;50.746;7.072;2024-01-11T01:35:28;77.78;;;27.98;;
33716;SDS011;20046;50.746;7.072;2024-01-11T01:37:54;66.13;;;27.00;;
33716;SDS011;20046;50.746;7.072;2024-01-11T01:40:20;75.68;;;27.52;;
33716;SDS011;20046;50.746;7.072;2024-01-11T01:42:45;69.40;;;25.63;;
33716;SDS011;20046;50.746;7.072;2024-01-11T01:45:11;69.68;;;27.10;;
33716;SDS011;20046;50.746;7.072;2024-01-11T01:47:38;71.63;;;26.50;;
33716;SDS011;20046;50.746;7.072;2024-01-11T01:50:05;78.32;;;27.27;;
33716;SDS011;20046;50.746;7.072;2024-01-11T01:52:32;73.97;;;28.63;;
33716;SDS011;20046;50.746;7.072;2024-01-11T01:54:59;75.78;;;28.17;;
33716;SDS011;20046;50.746;7.072;2024-01-11T01:57:27;75.63;;;27.88;;
33716;SDS011;20046;50.746;7.072;2024-01-11T01:59:53;77.25;;;26.67;;
33716;SDS011;20046;50.746;7.072;2024-01-11T02:02:19;72.97;;;26.52;;
33716;SDS011;20046;50.746;7.072;2024-01-11T02:04:46;70.63;;;26.17;;
33716;SDS011;20046;50.746;7.072;2024-01-11T02:07:11;77.18;;;25.92;;
33716;SDS011;20046;50.746;7.072;2024-01-11T02:09:38;66.43;;;26.92;;
33716;SDS011;20046;50.746;7.072;2024-01-11T02:12:05;73.55;;;26.20;;
33716;SDS011;20046;50.746;7.072;2024-01-11T02:14:31;81.15;;;25.95;;
33716;SDS011;20046;50.746;7.072;2024-01-11T02:16:57;81.32;;;27.25;;
33716;SDS011;20046;50.746;7.072;2024-01-11T02:19:23;78.68;;;27.33;;
33716;SDS011;20046;50.746;7.072;2024-01-11T02:21:49;74.63;;;28.15;;
33716;SDS011;20046;50.746;7.072;2024-01-11T02:24:17;83.35;;;27.50;;
33716;SDS011;20046;50.746;7.072;2024-01-11T02:29:28;64.97;;;24.35;;
33716;SDS011;20046;50.746;7.072;2024-01-11T02:31:55;73.22;;;26.00;;
33716;SDS011;20046;50.746;7.072;2024-01-11T02:34:21;78.82;;;26.77;;
33716;SDS011;20046;50.746;7.072;2024-01-11T02:36:48;69.45;;;25.58;;
33716;SDS011;20046;50.746;7.072;2024-01-11T02:39:15;75.32;;;25.52;;
33716;SDS011;20046;50.746;7.072;2024-01-11T02:41:43;70.13;;;24.90;;
33716;SDS011;20046;50.746;7.072;2024-01-11T02:44:09;69.43;;;25.92;;
33716;SDS011;20046;50.746;7.072;2024-01-11T02:46:35;67.88;;;26.63;;
33716;SDS011;20046;50.746;7.072;2024-01-11T02:49:01;67.93;;;25.73;;
33716;SDS011;20046;50.746;7.072;2024-01-11T02:51:26;73.43;;;27.75;;
33716;SDS011;20046;50.746;7.072;2024-01-11T02:53:52;71.72;;;27.70;;
33716;SDS011;20046;50.746;7.072;2024-01-11T02:56:17;74.93;;;25.92;;
33716;SDS011;20046;50.746;7.072;2024-01-11T02:58:43;76.18;;;26.40;;
33716;SDS011;20046;50.746;7.072;2024-01-11T03:01:08;68.78;;;27.42;;
33716;SDS011;20046;50.746;7.072;2024-01-11T03:03:34;70.00;;;25.17;;
33716;SDS011;20046;50.746;7.072;2024-01-11T03:06:00;70.40;;;26.67;;
33716;SDS011;20046;50.746;7.072;2024-01-11T03:08:26;74.22;;;24.70;;
33716;SDS011;20046;50.746;7.072;2024-01-11T03:10:51;74.70;;;27.40;;
33716;SDS011;20046;50.746;7.072;2024-01-11T03:13:17;76.47;;;25.95;;
33716;SDS011;20046;50.746;7.072;2024-01-11T03:15:43;75.78;;;26.73;;
33716;SDS011;20046;50.746;7.072;2024-01-11T03:18:08;72.75;;;26.67;;
33716;SDS011;20046;50.746;7.072;2024-01-11T03:20:34;65.43;;;24.25;;
33716;SDS011;20046;50.746;7.072;2024-01-11T03:23:00;68.40;;;25.83;;
33716;SDS011;20046;50.746;7.072;2024-01-11T03:25:25;76.88;;;27.45;;
33716;SDS011;20046;50.746;7.072;2024-01-11T03:27:51;70.15;;;26.27;;
33716;SDS011;20046;50.746;7.072;2024-01-11T03:30:16;71.45;;;25.75;;
33716;SDS011;20046;50.746;7.072;2024-01-11T03:32:42;64.43;;;25.45;;
33716;SDS011;20046;50.746;7.072;2024-01-11T03:35:08;64.90;;;24.35;;
33716;SDS011;20046;50.746;7.072;2024-01-11T03:37:34;75.40;;;24.20;;
33716;SDS011;20046;50.746;7.072;2024-01-11T03:40:00;68.68;;;25.35;;
33716;SDS011;20046;50.746;7.072;2024-01-11T03:42:27;74.03;;;25.63;;
33716;SDS011;20046;50.746;7.072;2024-01-11T03:44:52;71.40;;;24.70;;
33716;SDS011;20046;50.746;7.072;2024-01-11T03:47:18;67.45;;;25.67;;
33716;SDS011;20046;50.746;7.072;2024-01-11T03:49:44;68.65;;;24.52;;
33716;SDS011;20046;50.746;7.072;2024-01-11T03:52:09;77.85;;;26.25;;
33716;SDS011;20046;50.746;7.072;2024-01-11T03:54:35;70.55;;;25.90;;
33716;SDS011;20046;50.746;7.072;2024-01-11T03:57:00;67.47;;;25.15;;
33716;SDS011;20046;50.746;7.072;2024-01-11T03:59:26;74.20;;;26.35;;
33716;SDS011;20046;50.746;7.072;2024-01-11T04:01:52;76.85;;;27.35;;
33716;SDS011;20046;50.746;7.072;2024-01-11T04:04:17;73.22;;;26.45;;
33716;SDS011;20046;50.746;7.072;2024-01-11T04:06:43;74.82;;;25.08;;
33716;SDS011;20046;50.746;7.072;2024-01-11T04:09:10;73.25;;;24.15;;
33716;SDS011;20046;50.746;7.072;2024-01-11T04:11:35;69.72;;;25.10;;
33716;SDS011;20046;50.746;7.072;2024-01-11T04:14:01;74.25;;;26.27;;
33716;SDS011;20046;50.746;7.072;2024-01-11T04:16:26;65.82;;;24.00;;
33716;SDS011;20046;50.746;7.072;2024-01-11T04:18:52;77.90;;;25.92;;
33716;SDS011;20046;50.746;7.072;2024-01-11T04:21:25;61.83;;;24.10;;
33716;SDS011;20046;50.746;7.072;2024-01-11T04:23:54;60.80;;;23.20;;
33716;SDS011;20046;50.746;7.072;2024-01-11T04:26:23;63.22;;;24.02;;
33716;SDS011;20046;50.746;7.072;2024-01-11T04:28:49;65.15;;;24.77;;
33716;SDS011;20046;50.746;7.072;2024-01-11T04:31:16;69.82;;;25.25;;
33716;SDS011;20046;50.746;7.072;2024-01-11T04:33:42;64.10;;;24.20;;
33716;SDS011;20046;50.746;7.072;2024-01-11T04:36:09;69.30;;;24.67;;
33716;SDS011;20046;50.746;7.072;2024-01-11T04:38:35;75.82;;;25.38;;
33716;SDS011;20046;50.746;7.072;2024-01-11T04:41:02;63.60;;;25.20;;
33716;SDS011;20046;50.746;7.072;2024-01-11T04:43:32;70.13;;;25.58;;
33716;SDS011;20046;50.746;7.072;2024-01-11T04:45:57;59.08;;;24.23;;
33716;SDS011;20046;50.746;7.072;2024-01-11T04:48:23;68.47;;;23.83;;
33716;SDS011;20046;50.746;7.072;2024-01-11T04:50:49;65.32;;;25.73;;
33716;SDS011;20046;50.746;7.072;2024-01-11T04:53:14;70.22;;;25.83;;
33716;SDS011;20046;50.746;7.072;2024-01-11T04:55:40;64.88;;;24.00;;
33716;SDS011;20046;50.746;7.072;2024-01-11T04:58:06;69.55;;;24.83;;
33716;SDS011;20046;50.746;7.072;2024-01-11T05:00:31;71.40;;;25.20;;
33716;SDS011;20046;50.746;7.072;2024-01-11T05:02:57;59.15;;;23.50;;
33716;SDS011;20046;50.746;7.072;2024-01-11T05:05:22;62.42;;;24.48;;
33716;SDS011;20046;50.746;7.072;2024-01-11T05:07:48;70.85;;;26.02;;
33716;SDS011;20046;50.746;7.072;2024-01-11T05:10:13;67.38;;;26.60;;
33716;SDS011;20046;50.746;7.072;2024-01-11T05:12:39;73.45;;;26.30;;
33716;SDS011;20046;50.746;7.072;2024-01-11T05:15:08;69.90;;;25.20;;
33716;SDS011;20046;50.746;7.072;2024-01-11T05:17:33;76.65;;;25.45;;
33716;SDS011;20046;50.746;7.072;2024-01-11T05:19:59;66.47;;;24.75;;
33716;SDS011;20046;50.746;7.072;2024-01-11T05:22:25;66.43;;;23.13;;
33716;SDS011;20046;50.746;7.072;2024-01-11T05:24:50;68.10;;;25.55;;
33716;SDS011;20046;50.746;7.072;2024-01-11T05:27:16;65.22;;;24.23;;
33716;SDS011;20046;50.746;7.072;2024-01-11T05:29:41;74.20;;;24.60;;
33716;SDS011;20046;50.746;7.072;2024-01-11T05:32:07;65.78;;;24.08;;
33716;SDS011;20046;50.746;7.072;2024-01-11T05:34:33;69.97;;;25.30;;
33716;SDS011;20046;50.746;7.072;2024-01-11T05:36:58;70.65;;;25.40;;
33716;SDS011;20046;50.746;7.072;2024-01-11T05:39:24;62.55;;;24.10;;
33716;SDS011;20046;50.746;7.072;2024-01-11T05:41:49;69.70;;;24.88;;
33716;SDS011;20046;50.746;7.072;2024-01-11T05:44:15;68.25;;;25.17;;
33716;SDS011;20046;50.746;7.072;2024-01-11T05:46:40;76.95;;;27.15;;
33716;SDS011;20046;50.746;7.072;2024-01-11T05:49:06;73.90;;;25.63;;
33716;SDS011;20046;50.746;7.072;2024-01-11T05:51:32;63.45;;;25.17;;
33716;SDS011;20046;50.746;7.072;2024-01-11T05:53:58;68.25;;;25.35;;
33716;SDS011;20046;50.746;7.072;2024-01-11T05:56:23;69.55;;;26.65;;
33716;SDS011;20046;50.746;7.072;2024-01-11T05:58:49;74.90;;;26.02;;
33716;SDS011;20046;50.746;7.072;2024-01-11T06:01:14;68.22;;;25.63;;
33716;SDS011;20046;50.746;7.072;2024-01-11T06:03:40;73.43;;;26.27;;
33716;SDS011;20046;50.746;7.072;2024-01-11T06:06:06;61.40;;;24.25;;
33716;SDS011;20046;50.746;7.072;2024-01-11T06:08:32;63.50;;;24.27;;
33716;SDS011;20046;50.746;7.072;2024-01-11T06:10:57;71.63;;;27.45;;
33716;SDS011;20046;50.746;7.072;2024-01-11T06:13:23;73.03;;;26.70;;
33716;SDS011;20046;50.746;7.072;2024-01-11T06:15:49;72.22;;;27.85;;
33716;SDS011;20046;50.746;7.072;2024-01-11T06:18:15;81.25;;;28.92;;
33716;SDS011;20046;50.746;7.072;2024-01-11T06:20:41;73.20;;;27.33;;
33716;SDS011;20046;50.746;7.072;2024-01-11T06:23:06;70.57;;;26.35;;
33716;SDS011;20046;50.746;7.072;2024-01-11T06:25:32;75.47;;;27.25;;
33716;SDS011;20046;50.746;7.072;2024-01-11T06:27:57;76.30;;;25.48;;
33716;SDS011;20046;50.746;7.072;2024-01-11T06:30:23;70.78;;;24.25;;
33716;SDS011;20046;50.746;7.072;2024-01-11T06:32:49;76.35;;;25.65;;
33716;SDS011;20046;50.746;7.072;2024-01-11T06:35:14;75.10;;;26.33;;
33716;SDS011;20046;50.746;7.072;2024-01-11T06:37:40;73.50;;;26.02;;
33716;SDS011;20046;50.746;7.072;2024-01-11T06:40:05;67.40;;;25.00;;
33716;SDS011;20046;50.746;7.072;2024-01-11T06:42:33;70.07;;;25.70;;
33716;SDS011;20046;50.746;7.072;2024-01-11T06:44:59;66.10;;;25.80;;
33716;SDS011;20046;50.746;7.072;2024-01-11T06:47:24;68.78;;;25.67;;
33716;SDS011;20046;50.746;7.072;2024-01-11T06:49:50;75.15;;;26.20;;
33716;SDS011;20046;50.746;7.072;2024-01-11T06:52:16;75.43;;;26.25;;
33716;SDS011;20046;50.746;7.072;2024-01-11T06:54:41;65.13;;;23.90;;
33716;SDS011;20046;50.746;7.072;2024-01-11T06:57:07;71.20;;;26.65;;
33716;SDS011;20046;50.746;7.072;2024-01-11T06:59:33;72.35;;;26.52;;
33716;SDS011;20046;50.746;7.072;2024-01-11T07:01:58;79.70;;;25.98;;
33716;SDS011;20046;50.746;7.072;2024-01-11T07:04:24;76.78;;;28.55;;
33716;SDS011;20046;50.746;7.072;2024-01-11T07:06:49;84.35;;;28.85;;
33716;SDS011;20046;50.746;7.072;2024-01-11T07:09:15;76.43;;;27.70;;
33716;SDS011;20046;50.746;7.072;2024-01-11T07:11:42;76.63;;;29.65;;
33716;SDS011;20046;50.746;7.072;2024-01-11T07:14:08;83.05;;;30.75;;
33716;SDS011;20046;50.746;7.072;2024-01-11T07:16:34;83.18;;;29.90;;
33716;SDS011;20046;50.746;7.072;2024-01-11T07:19:00;79.05;;;28.15;;
33716;SDS011;20046;50.746;7.072;2024-01-11T07:21:26;84.88;;;29.83;;
33716;SDS011;20046;50.746;7.072;2024-01-11T07:23:57;83.25;;;27.27;;
33716;SDS011;20046;50.746;7.072;2024-01-11T07:26:24;77.88;;;28.25;;
33716;SDS011;20046;50.746;7.072;2024-01-11T07:28:50;70.15;;;26.33;;
33716;SDS011;20046;50.746;7.072;2024-01-11T07:31:16;76.45;;;26.75;;
33716;SDS011;20046;50.746;7.072;2024-01-11T07:33:42;72.68;;;26.77;;
33716;SDS011;20046;50.746;7.072;2024-01-11T07:36:08;71.18;;;26.90;;
33716;SDS011;20046;50.746;7.072;2024-01-11T07:38:34;73.40;;;27.58;;
33716;SDS011;20046;50.746;7.072;2024-01-11T07:41:00;75.03;;;26.77;;
33716;SDS011;20046;50.746;7.072;2024-01-11T07:43:26;75.85;;;26.73;;
33716;SDS011;20046;50.746;7.072;2024-01-11T07:45:53;75.57;;;26.10;;
33716;SDS011;20046;50.746;7.072;2024-01-11T07:48:21;74.40;;;24.98;;
33716;SDS011;20046;50.746;7.072;2024-01-11T07:50:47;65.63;;;25.00;;
33716;SDS011;20046;50.746;7.072;2024-01-11T07:53:13;76.65;;;27.30;;
33716;SDS011;20046;50.746;7.072;2024-01-11T07:55:39;66.55;;;25.27;;
33716;SDS011;20046;50.746;7.072;2024-01-11T07:58:05;73.10;;;27.70;;
33716;SDS011;20046;50.746;7.072;2024-01-11T08:00:31;77.97;;;27.13;;
33716;SDS011;20046;50.746;7.072;2024-01-11T08:02:57;68.78;;;26.95;;
33716;SDS011;20046;50.746;7.072;2024-01-11T08:05:23;100.60;;;31.33;;
33716;SDS011;20046;50.746;7.072;2024-01-11T08:07:48;71.80;;;26.83;;
33716;SDS011;20046;50.746;7.072;2024-01-11T08:10:14;65.05;;;26.40;;
33716;SDS011;20046;50.746;7.072;2024-01-11T08:12:40;81.88;;;27.73;;
33716;SDS011;20046;50.746;7.072;2024-01-11T08:15:06;69.85;;;25.30;;
33716;SDS011;20046;50.746;7.072;2024-01-11T08:17:31;72.15;;;26.55;;
33716;SDS011;20046;50.746;7.072;2024-01-11T08:19:57;62.20;;;24.65;;
33716;SDS011;20046;50.746;7.072;2024-01-11T08:22:23;62.42;;;24.83;;
33716;SDS011;20046;50.746;7.072;2024-01-11T08:24:48;74.25;;;28.25;;
33716;SDS011;20046;50.746;7.072;2024-01-11T08:27:15;65.53;;;24.08;;
33716;SDS011;20046;50.746;7.072;2024-01-11T08:29:42;61.58;;;22.50;;
33716;SDS011;20046;50.746;7.072;2024-01-11T08:32:08;81.30;;;26.15;;
33716;SDS011;20046;50.746;7.072;2024-01-11T08:34:34;71.82;;;25.70;;
33716;SDS011;20046;50.746;7.072;2024-01-11T08:36:59;60.55;;;23.85;;
33716;SDS011;20046;50.746;7.072;2024-01-11T08:39:25;68.50;;;24.63;;
33716;SDS011;20046;50.746;7.072;2024-01-11T08:41:51;68.22;;;24.67;;
33716;SDS011;20046;50.746;7.072;2024-01-11T08:44:17;61.50;;;24.00;;
33716;SDS011;20046;50.746;7.072;2024-01-11T08:46:43;58.20;;;23.05;;
33716;SDS011;20046;50.746;7.072;2024-01-11T08:49:09;56.05;;;22.63;;
33716;SDS011;20046;50.746;7.072;2024-01-11T08:51:34;56.55;;;22.98;;
33716;SDS011;20046;50.746;7.072;2024-01-11T08:54:00;61.38;;;23.20;;
33716;SDS011;20046;50.746;7.072;2024-01-11T08:56:26;55.70;;;22.02;;
33716;SDS011;20046;50.746;7.072;2024-01-11T08:58:51;53.78;;;23.55;;
33716;SDS011;20046;50.746;7.072;2024-01-11T09:01:17;61.63;;;21.75;;
33716;SDS011;20046;50.746;7.072;2024-01-11T09:03:45;52.70;;;22.63;;
33716;SDS011;20046;50.746;7.072;2024-01-11T09:06:13;57.03;;;23.20;;
33716;SDS011;20046;50.746;7.072;2024-01-11T09:08:38;53.35;;;22.05;;
33716;SDS011;20046;50.746;7.072;2024-01-11T09:11:06;57.92;;;25.10;;
33716;SDS011;20046;50.746;7.072;2024-01-11T09:13:31;59.78;;;24.63;;
33716;SDS011;20046;50.746;7.072;2024-01-11T09:15:57;55.53;;;22.73;;
33716;SDS011;20046;50.746;7.072;2024-01-11T09:18:23;50.55;;;22.92;;
33716;SDS011;20046;50.746;7.072;2024-01-11T09:20:49;54.83;;;22.80;;
33716;SDS011;20046;50.746;7.072;2024-01-11T09:23:14;59.10;;;22.90;;
33716;SDS011;20046;50.746;7.072;2024-01-11T09:25:41;56.35;;;23.95;;
33716;SDS011;20046;50.746;7.072;2024-01-11T09:28:06;59.03;;;24.35;;
33716;SDS011;20046;50.746;7.072;2024-01-11T09:30:32;50.53;;;22.60;;
33716;SDS011;20046;50.746;7.072;2024-01-11T09:32:58;50.50;;;22.25;;
33716;SDS011;20046;50.746;7.072;2024-01-11T09:35:23;54.85;;;22.90;;
33716;SDS011;20046;50.746;7.072;2024-01-11T09:37:49;53.60;;;23.73;;
33716;SDS011;20046;50.746;7.072;2024-01-11T09:40:15;52.70;;;24.17;;
33716;SDS011;20046;50.746;7.072;2024-01-11T09:42:42;53.20;;;22.98;;
33716;SDS011;20046;50.746;7.072;2024-01-11T09:45:09;55.65;;;25.17;;
33716;SDS011;20046;50.746;7.072;2024-01-11T09:47:38;51.63;;;25.52;;
33716;SDS011;20046;50.746;7.072;2024-01-11T09:50:08;57.60;;;24.42;;
33716;SDS011;20046;50.746;7.072;2024-01-11T09:52:34;56.63;;;24.80;;
33716;SDS011;20046;50.746;7.072;2024-01-11T09:55:03;52.95;;;23.92;;
33716;SDS011;20046;50.746;7.072;2024-01-11T09:57:30;52.05;;;24.33;;
33716;SDS011;20046;50.746;7.072;2024-01-11T09:59:57;58.35;;;25.35;;
33716;SDS011;20046;50.746;7.072;2024-01-11T10:02:23;52.50;;;24.33;;
33716;SDS011;20046;50.746;7.072;2024-01-11T10:04:51;58.08;;;26.40;;
33716;SDS011;20046;50.746;7.072;2024-01-11T10:07:18;57.65;;;24.58;;
33716;SDS011;20046;50.746;7.072;2024-01-11T10:09:47;59.85;;;24.45;;
33716;SDS011;20046;50.746;7.072;2024-01-11T10:12:13;56.17;;;24.92;;
33716;SDS011;20046;50.746;7.072;2024-01-11T10:14:39;54.65;;;24.92;;
33716;SDS011;20046;50.746;7.072;2024-01-11T10:17:05;61.60;;;26.95;;
33716;SDS011;20046;50.746;7.072;2024-01-11T10:19:31;56.05;;;25.83;;
33716;SDS011;20046;50.746;7.072;2024-01-11T10:21:57;56.60;;;25.27;;
33716;SDS011;20046;50.746;7.072;2024-01-11T10:24:23;59.50;;;26.90;;
33716;SDS011;20046;50.746;7.072;2024-01-11T10:26:51;62.50;;;26.90;;
33716;SDS011;20046;50.746;7.072;2024-01-11T10:29:28;70.22;;;25.23;;
33716;SDS011;20046;50.746;7.072;2024-01-11T10:31:55;63.20;;;25.73;;
33716;SDS011;20046;50.746;7.072;2024-01-11T10:34:22;62.00;;;27.38;;
33716;SDS011;20046;50.746;7.072;2024-01-11T10:36:49;54.75;;;24.90;;
33716;SDS011;20046;50.746;7.072;2024-01-11T10:39:18;60.33;;;26.85;;
33716;SDS011;20046;50.746;7.072;2024-01-11T10:42:00;61.92;;;26.98;;
33716;SDS011;20046;50.746;7.072;2024-01-11T10:44:30;61.83;;;26.88;;
33716;SDS011;20046;50.746;7.072;2024-01-11T10:46:59;62.92;;;26.83;;
33716;SDS011;20046;50.746;7.072;2024-01-11T10:49:27;60.05;;;27.98;;
33716;SDS011;20046;50.746;7.072;2024-01-11T10:51:53;60.13;;;27.65;;
33716;SDS011;20046;50.746;7.072;2024-01-11T10:54:23;55.83;;;28.58;;
33716;SDS011;20046;50.746;7.072;2024-01-11T10:56:49;57.35;;;27.73;;
33716;SDS011;20046;50.746;7.072;2024-01-11T10:59:16;58.10;;;27.83;;
33716;SDS011;20046;50.746;7.072;2024-01-11T11:01:46;62.55;;;28.08;;
33716;SDS011;20046;50.746;7.072;2024-01-11T11:04:11;59.22;;;28.42;;
33716;SDS011;20046;50.746;7.072;2024-01-11T11:06:39;59.80;;;29.05;;
33716;SDS011;20046;50.746;7.072;2024-01-11T11:09:06;64.00;;;28.40;;
33716;SDS011;20046;50.746;7.072;2024-01-11T11:11:32;56.03;;;28.85;;
33716;SDS011;20046;50.746;7.072;2024-01-11T11:13:59;57.97;;;28.45;;
33716;SDS011;20046;50.746;7.072;2024-01-11T11:16:26;59.97;;;28.90;;
33716;SDS011;20046;50.746;7.072;2024-01-11T11:18:53;60.10;;;29.17;;
33716;SDS011;20046;50.746;7.072;2024-01-11T11:21:19;58.92;;;29.33;;
33716;SDS011;20046;50.746;7.072;2024-01-11T11:23:46;66.35;;;29.98;;
33716;SDS011;20046;50.746;7.072;2024-01-11T11:26:15;56.63;;;30.75;;
33716;SDS011;20046;50.746;7.072;2024-01-11T11:28:46;64.28;;;30.42;;
33716;SDS011;20046;50.746;7.072;2024-01-11T11:31:13;61.20;;;30.80;;
33716;SDS011;20046;50.746;7.072;2024-01-11T11:33:59;60.30;;;30.98;;
33716;SDS011;20046;50.746;7.072;2024-01-11T11:36:29;62.72;;;31.92;;
33716;SDS011;20046;50.746;7.072;2024-01-11T11:38:55;60.20;;;31.20;;
33716;SDS011;20046;50.746;7.072;2024-01-11T11:41:25;60.38;;;33.00;;
33716;SDS011;20046;50.746;7.072;2024-01-11T11:43:51;69.18;;;33.30;;
33716;SDS011;20046;50.746;7.072;2024-01-11T11:46:17;64.25;;;32.38;;
33716;SDS011;20046;50.746;7.072;2024-01-11T11:48:47;62.65;;;32.22;;
33716;SDS011;20046;50.746;7.072;2024-01-11T11:51:18;62.55;;;31.20;;
33716;SDS011;20046;50.746;7.072;2024-01-11T11:53:45;59.92;;;31.65;;
33716;SDS011;20046;50.746;7.072;2024-01-11T11:56:16;60.47;;;31.38;;
33716;SDS011;20046;50.746;7.072;2024-01-11T11:58:46;68.05;;;34.17;;
33716;SDS011;20046;50.746;7.072;2024-01-11T12:01:13;61.38;;;33.00;;
33716;SDS011;20046;50.746;7.072;2024-01-11T12:03:40;68.80;;;35.22;;
33716;SDS011;20046;50.746;7.072;2024-01-11T12:06:09;66.05;;;34.17;;
33716;SDS011;20046;50.746;7.072;2024-01-11T12:08:36;68.60;;;34.13;;
33716;SDS011;20046;50.746;7.072;2024-01-11T12:11:02;72.40;;;35.78;;
33716;SDS011;20046;50.746;7.072;2024-01-11T12:13:28;70.72;;;36.65;;
33716;SDS011;20046;50.746;7.072;2024-01-11T12:15:56;62.38;;;36.50;;
33716;SDS011;20046;50.746;7.072;2024-01-11T12:18:21;76.90;;;37.70;;
33716;SDS011;20046;50.746;7.072;2024-01-11T12:20:47;65.60;;;36.78;;
33716;SDS011;20046;50.746;7.072;2024-01-11T12:23:13;64.57;;;38.20;;
33716;SDS011;20046;50.746;7.072;2024-01-11T12:25:43;70.53;;;38.88;;
33716;SDS011;20046;50.746;7.072;2024-01-11T12:28:08;70.65;;;38.13;;
33716;SDS011;20046;50.746;7.072;2024-01-11T12:30:35;78.03;;;39.88;;
33716;SDS011;20046;50.746;7.072;2024-01-11T12:33:01;77.53;;;38.63;;
33716;SDS011;20046;50.746;7.072;2024-01-11T12:35:27;75.82;;;39.10;;
33716;SDS011;20046;50.746;7.072;2024-01-11T12:37:54;70.82;;;40.72;;
33716;SDS011;20046;50.746;7.072;2024-01-11T12:40:28;75.50;;;39.97;;
33716;SDS011;20046;50.746;7.072;2024-01-11T12:42:57;67.20;;;38.25;;
33716;SDS011;20046;50.746;7.072;2024-01-11T12:45:24;74.57;;;39.42;;
33716;SDS011;20046;50.746;7.072;2024-01-11T12:47:53;74.35;;;38.10;;
33716;SDS011;20046;50.746;7.072;2024-01-11T12:50:21;79.05;;;39.00;;
33716;SDS011;20046;50.746;7.072;2024-01-11T12:53:03;65.10;;;37.72;;
33716;SDS011;20046;50.746;7.072;2024-01-11T12:55:32;68.20;;;37.17;;
33716;SDS011;20046;50.746;7.072;2024-01-11T12:58:04;72.15;;;37.13;;
33716;SDS011;20046;50.746;7.072;2024-01-11T13:00:30;67.30;;;36.78;;
33716;SDS011;20046;50.746;7.072;2024-01-11T13:02:56;66.90;;;35.95;;
33716;SDS011;20046;50.746;7.072;2024-01-11T13:05:22;66.68;;;36.63;;
33716;SDS011;20046;50.746;7.072;2024-01-11T13:07:48;68.93;;;36.22;;
33716;SDS011;20046;50.746;7.072;2024-01-11T13:10:13;65.25;;;36.15;;
33716;SDS011;20046;50.746;7.072;2024-01-11T13:12:39;68.13;;;34.65;;
33716;SDS011;20046;50.746;7.072;2024-01-11T13:15:05;64.00;;;34.65;;
33716;SDS011;20046;50.746;7.072;2024-01-11T13:17:31;67.60;;;35.88;;
33716;SDS011;20046;50.746;7.072;2024-01-11T13:19:56;68.38;;;37.65;;
33716;SDS011;20046;50.746;7.072;2024-01-11T13:22:24;71.45;;;36.17;;
33716;SDS011;20046;50.746;7.072;2024-01-11T13:24:50;71.15;;;35.83;;
33716;SDS011;20046;50.746;7.072;2024-01-11T13:27:15;71.88;;;35.28;;
33716;SDS011;20046;50.746;7.072;2024-01-11T13:29:41;74.10;;;37.08;;
33716;SDS011;20046;50.746;7.072;2024-01-11T13:32:06;72.30;;;36.20;;
33716;SDS011;20046;50.746;7.072;2024-01-11T13:34:32;69.13;;;36.13;;
33716;SDS011;20046;50.746;7.072;2024-01-11T13:36:57;73.43;;;34.25;;
33716;SDS011;20046;50.746;7.072;2024-01-11T13:39:24;67.18;;;35.40;;
33716;SDS011;20046;50.746;7.072;2024-01-11T13:41:50;74.93;;;34.92;;
33716;SDS011;20046;50.746;7.072;2024-01-11T13:44:16;76.95;;;35.10;;
33716;SDS011;20046;50.746;7.072;2024-01-11T13:46:42;75.55;;;34.80;;
33716;SDS011;20046;50.746;7.072;2024-01-11T13:49:08;71.82;;;33.80;;
33716;SDS011;20046;50.746;7.072;2024-01-11T13:51:34;72.32;;;34.78;;
33716;SDS011;20046;50.746;7.072;2024-01-11T13:54:00;75.07;;;35.35;;
33716;SDS011;20046;50.746;7.072;2024-01-11T13:56:26;75.38;;;35.67;;
33716;SDS011;20046;50.746;7.072;2024-01-11T13:58:52;87.45;;;37.42;;
33716;SDS011;20046;50.746;7.072;2024-01-11T14:01:18;77.30;;;37.80;;
33716;SDS011;20046;50.746;7.072;2024-01-11T14:03:43;78.43;;;36.15;;
33716;SDS011;20046;50.746;7.072;2024-01-11T14:06:09;71.00;;;34.65;;
33716;SDS011;20046;50.746;7.072;2024-01-11T14:08:34;80.78;;;36.28;;
33716;SDS011;20046;50.746;7.072;2024-01-11T14:11:00;77.28;;;35.85;;
33716;SDS011;20046;50.746;7.072;2024-01-11T14:13:26;80.82;;;35.17;;
33716;SDS011;20046;50.746;7.072;2024-01-11T14:15:51;82.30;;;37.28;;
33716;SDS011;20046;50.746;7.072;2024-01-11T14:18:18;79.85;;;37.08;;